Time;durP1;ratioP1;P1;durP2;ratioP2;P2;SDS_P1;SDS_P2;PMS_P1;PMS_P2;Temp;Humidity;BMP_temperature;BMP_pressure;BME280_temperature;BME280_humidity;BME280_pressure;Samples;Min_cycle;Max_cycle;Signal;HPM_P1;HPM_P2
2022/01/28 00:01:34;;;;;;;8.05;1.83;;;5.00;99.90;;;;;;5049010;28;20062;-53
2022/01/28 00:04:11;;;;;;;18.25;2.00;;;5.10;99.90;;;;;;5052785;28;20508;-54
2022/01/28 00:06:37;;;;;;;13.07;2.15;;;5.10;99.90;;;;;;5052143;28;20037;-53
2022/01/28 00:09:03;;;;;;;14.93;2.92;;;5.10;99.90;;;;;;5029596;28;20045;-52
2022/01/28 00:11:28;;;;;;;15.20;2.38;;;5.10;99.90;;;;;;5052764;28;20041;-54
2022/01/28 00:14:04;;;;;;;14.60;2.40;;;5.00;99.90;;;;;;5053098;28;20424;-53
2022/01/28 00:38:34;;;;;;;17.77;2.65;;;4.70;99.90;;;;;;5052461;28;20056;-54
2022/01/28 00:40:59;;;;;;;13.90;2.47;;;4.70;99.90;;;;;;5051281;28;20056;-54
2022/01/28 00:43:25;;;;;;;15.38;2.42;;;4.70;99.90;;;;;;5052416;28;20037;-54
2022/01/28 00:45:51;;;;;;;19.63;3.22;;;4.70;99.90;;;;;;5052476;28;20493;-54
2022/01/28 00:48:16;;;;;;;19.58;3.17;;;4.70;99.90;;;;;;5052321;28;20028;-54
2022/01/28 00:50:42;;;;;;;20.70;3.00;;;4.70;99.90;;;;;;5052352;28;20120;-54
2022/01/28 00:53:09;;;;;;;16.77;2.70;;;4.70;99.90;;;;;;5052508;28;20106;-54
2022/01/28 00:55:34;;;;;;;16.95;3.00;;;4.70;99.90;;;;;;5052404;28;20067;-54
2022/01/28 00:58:00;;;;;;;16.58;2.90;;;4.70;99.90;;;;;;5052237;28;20206;-54
2022/01/28 01:00:26;;;;;;;20.98;3.13;;;4.70;99.90;;;;;;5052300;28;20080;-54
2022/01/28 01:02:51;;;;;;;20.20;3.08;;;4.60;99.90;;;;;;5052070;28;20493;-54
2022/01/28 01:05:17;;;;;;;19.58;2.70;;;4.60;99.90;;;;;;5052251;28;20412;-54
2022/01/28 01:07:42;;;;;;;21.60;2.97;;;4.60;99.90;;;;;;5051424;28;20028;-53
2022/01/28 01:10:09;;;;;;;22.17;3.88;;;4.60;99.90;;;;;;5047408;28;20124;-54
2022/01/28 01:12:41;;;;;;;23.10;3.33;;;4.60;99.90;;;;;;5051891;28;20040;-54
2022/01/28 01:15:07;;;;;;;20.77;3.10;;;4.60;99.90;;;;;;5051971;28;20072;-54
2022/01/28 01:17:38;;;;;;;20.73;3.60;;;4.60;99.90;;;;;;5051930;28;20052;-54
2022/01/28 01:20:16;;;;;;;24.48;3.47;;;4.60;99.90;;;;;;5037717;28;20041;-51
2022/01/28 01:22:42;;;;;;;25.70;3.75;;;4.60;99.90;;;;;;5052075;28;20636;-54
2022/01/28 01:25:16;;;;;;;17.35;3.25;;;4.60;99.90;;;;;;5051556;28;20083;-54
2022/01/28 01:27:43;;;;;;;22.40;3.25;;;4.70;99.90;;;;;;5051636;28;20117;-54
2022/01/28 01:30:09;;;;;;;19.98;3.50;;;4.70;99.90;;;;;;5034178;28;20053;-54
2022/01/28 01:32:35;;;;;;;28.88;3.30;;;4.70;99.90;;;;;;5051927;28;20044;-54
2022/01/28 01:35:00;;;;;;;16.88;4.15;;;4.80;99.90;;;;;;5051268;28;20082;-53
2022/01/28 01:37:26;;;;;;;31.27;3.72;;;4.80;99.90;;;;;;5051115;28;20041;-54
2022/01/28 01:39:52;;;;;;;25.70;3.53;;;4.90;99.90;;;;;;5051549;28;20565;-54
2022/01/28 01:42:30;;;;;;;26.98;4.32;;;4.90;99.90;;;;;;5051584;28;20515;-55
2022/01/28 01:53:20;;;;;;;23.05;3.75;;;4.90;99.90;;;;;;5051386;28;20044;-54
2022/01/28 01:55:47;;;;;;;28.45;3.70;;;4.90;99.90;;;;;;5051279;28;20473;-54
2022/01/28 01:58:12;;;;;;;27.85;4.00;;;4.90;99.90;;;;;;5031537;28;20041;-54
2022/01/28 02:00:38;;;;;;;27.83;3.95;;;4.90;99.90;;;;;;5031357;28;20042;-54
2022/01/28 02:03:04;;;;;;;25.52;4.53;;;4.80;99.90;;;;;;5035742;28;20048;-54
2022/01/28 02:05:29;;;;;;;27.13;4.57;;;4.80;99.90;;;;;;5044702;28;20076;-54
2022/01/28 02:07:55;;;;;;;27.90;3.70;;;4.80;99.90;;;;;;5044468;28;20040;-53
2022/01/28 02:10:20;;;;;;;24.30;3.83;;;4.80;99.90;;;;;;5051085;28;20056;-55
2022/01/28 02:12:51;;;;;;;20.88;3.95;;;4.80;99.90;;;;;;5050899;28;20489;-54
2022/01/28 02:15:18;;;;;;;30.45;3.95;;;4.90;99.90;;;;;;5050853;28;20040;-54
2022/01/28 02:17:44;;;;;;;21.52;3.83;;;4.80;99.90;;;;;;5051146;28;20044;-53
2022/01/28 02:20:23;;;;;;;29.23;4.18;;;4.80;99.90;;;;;;5051071;28;20492;-53
2022/01/28 02:22:49;;;;;;;23.65;3.83;;;4.80;99.90;;;;;;5051339;28;20404;-54
2022/01/28 02:25:26;;;;;;;18.58;3.78;;;4.80;99.90;;;;;;5050926;28;20033;-54
2022/01/28 02:27:52;;;;;;;24.90;3.67;;;4.80;99.90;;;;;;5048339;28;20126;-53
2022/01/28 02:30:17;;;;;;;22.83;3.47;;;4.80;99.90;;;;;;5051232;28;20525;-54
2022/01/28 02:32:44;;;;;;;20.38;4.05;;;4.80;99.90;;;;;;5051275;28;20574;-54
2022/01/28 02:35:10;;;;;;;25.90;3.08;;;4.80;99.90;;;;;;5050871;28;20036;-54
2022/01/28 02:40:10;;;;;;;23.27;3.25;;;4.80;99.90;;;;;;5028871;28;20497;-51
2022/01/28 02:42:50;;;;;;;20.50;3.70;;;4.80;99.90;;;;;;4996547;28;20038;-52
2022/01/28 02:45:25;;;;;;;22.73;4.03;;;4.80;99.90;;;;;;5011325;28;20128;-54
2022/01/28 02:47:56;;;;;;;25.13;3.60;;;4.80;99.90;;;;;;5011409;28;20489;-53
2022/01/28 02:50:23;;;;;;;21.35;3.78;;;4.80;99.90;;;;;;5014036;28;20042;-53
2022/01/28 02:53:02;;;;;;;28.42;4.07;;;4.80;99.90;;;;;;5018894;28;20626;-54
2022/01/28 02:55:29;;;;;;;23.42;3.88;;;4.80;99.90;;;;;;5046793;28;20059;-53
2022/01/28 02:58:04;;;;;;;22.35;3.92;;;4.80;99.90;;;;;;5054744;28;20158;-54
2022/01/28 03:00:30;;;;;;;24.98;3.33;;;4.90;99.90;;;;;;5054864;28;20099;-51
2022/01/28 03:02:55;;;;;;;25.38;3.20;;;4.90;99.90;;;;;;5048818;28;20501;-53
2022/01/28 03:05:31;;;;;;;30.02;3.95;;;5.00;99.90;;;;;;5034001;28;20041;-52
2022/01/28 03:07:58;;;;;;;26.15;4.53;;;5.00;99.90;;;;;;5034850;28;20045;-52
2022/01/28 03:10:29;;;;;;;16.85;3.00;;;5.00;99.90;;;;;;5033849;28;20041;-52
2022/01/28 03:15:26;;;;;;;22.13;3.50;;;5.10;99.90;;;;;;5014683;28;20037;-53
2022/01/28 03:18:07;;;;;;;17.88;3.08;;;5.10;99.90;;;;;;5014893;28;20391;-51
2022/01/28 03:20:42;;;;;;;22.40;3.28;;;5.20;99.90;;;;;;5034496;28;20079;-53
2022/01/28 03:23:07;;;;;;;26.50;4.10;;;5.20;99.90;;;;;;5034722;28;20169;-53
2022/01/28 03:25:37;;;;;;;25.48;3.42;;;5.20;99.90;;;;;;5047079;28;20071;-53
2022/01/28 03:28:03;;;;;;;17.90;3.35;;;5.20;99.90;;;;;;5053975;28;20060;-53
2022/01/28 03:30:29;;;;;;;22.45;3.47;;;5.20;99.90;;;;;;5050083;28;20112;-51
2022/01/28 03:32:55;;;;;;;25.10;3.47;;;5.20;99.90;;;;;;5014395;28;20457;-52
2022/01/28 03:35:21;;;;;;;23.08;4.00;;;5.20;99.90;;;;;;5024137;28;20045;-51
2022/01/28 03:37:47;;;;;;;15.38;2.70;;;5.20;99.90;;;;;;5034148;28;20041;-51
2022/01/28 03:40:13;;;;;;;17.60;3.25;;;5.20;99.90;;;;;;5034502;28;20041;-52
2022/01/28 03:42:39;;;;;;;19.10;3.38;;;5.20;99.90;;;;;;5033881;28;20417;-50
2022/01/28 03:45:06;;;;;;;22.92;3.72;;;5.20;99.90;;;;;;5027567;28;20037;-52
2022/01/28 03:47:32;;;;;;;21.63;2.90;;;5.30;99.90;;;;;;5033895;28;20048;-51
2022/01/28 03:49:57;;;;;;;20.50;2.55;;;5.20;99.90;;;;;;5027243;28;20037;-51
2022/01/28 03:52:23;;;;;;;18.67;3.20;;;5.20;99.90;;;;;;5014042;28;20092;-53
2022/01/28 03:54:49;;;;;;;14.43;2.45;;;5.20;99.90;;;;;;4996352;28;20406;-52
2022/01/28 03:57:15;;;;;;;16.67;3.72;;;5.30;99.90;;;;;;5013921;28;20049;-53
2022/01/28 03:59:40;;;;;;;18.42;2.70;;;5.30;99.90;;;;;;5013647;28;20466;-52
2022/01/28 04:02:07;;;;;;;16.08;3.03;;;5.30;99.90;;;;;;5014558;28;20041;-52
2022/01/28 04:12:40;;;;;;;28.10;3.22;;;5.20;99.90;;;;;;5022877;28;20083;-53
2022/01/28 04:15:21;;;;;;;16.73;3.75;;;5.10;99.90;;;;;;5033605;28;20045;-52
2022/01/28 04:17:48;;;;;;;21.20;3.50;;;5.10;99.90;;;;;;5033379;28;20052;-53
2022/01/28 04:20:14;;;;;;;20.85;3.03;;;5.20;99.90;;;;;;5031032;28;20051;-51
2022/01/28 04:22:40;;;;;;;20.00;3.03;;;5.10;99.90;;;;;;5033493;28;20041;-53
2022/01/28 04:25:06;;;;;;;22.15;2.85;;;5.10;99.90;;;;;;5015257;28;20489;-49
2022/01/28 04:27:32;;;;;;;21.35;3.42;;;5.10;99.90;;;;;;5033193;28;20041;-52
2022/01/28 04:29:57;;;;;;;21.75;2.72;;;5.10;99.90;;;;;;5033140;28;20060;-54
2022/01/28 04:32:25;;;;;;;19.67;3.20;;;5.10;99.90;;;;;;5033048;28;20441;-51
2022/01/28 04:34:53;;;;;;;18.88;3.70;;;5.10;99.90;;;;;;5032092;28;20044;-50
2022/01/28 04:40:05;;;;;;;18.50;3.93;;;5.10;99.90;;;;;;5032922;28;20041;-52
2022/01/28 04:42:55;;;;;;;20.83;3.03;;;5.10;99.90;;;;;;5031661;28;20489;-49
2022/01/28 04:45:25;;;;;;;23.67;3.80;;;5.10;99.90;;;;;;5032442;28;20087;-53
2022/01/28 04:56:20;;;;;;;28.30;4.13;;;5.10;99.90;;;;;;5032696;28;20075;-50
2022/01/28 04:59:22;;;;;;;21.45;3.30;;;5.20;99.90;;;;;;5032747;28;20120;-53
2022/01/28 05:02:13;;;;;;;22.95;4.43;;;5.10;99.90;;;;;;5024154;28;20409;-52
2022/01/28 05:07:39;;;;;;;26.48;3.88;;;5.10;99.90;;;;;;5025987;28;20049;-53
2022/01/28 05:16:02;;;;;;;25.05;3.90;;;5.10;99.90;;;;;;5032228;28;20068;-51
2022/01/28 05:27:03;;;;;;;24.50;3.72;;;5.20;99.90;;;;;;5032077;28;20472;-54
2022/01/28 05:29:28;;;;;;;22.60;4.00;;;5.20;99.90;;;;;;5032178;28;20470;-54
2022/01/28 05:31:54;;;;;;;28.25;3.55;;;5.20;99.90;;;;;;5031815;28;20132;-52
2022/01/28 05:34:23;;;;;;;19.27;3.17;;;5.20;99.90;;;;;;5031549;28;20083;-53
2022/01/28 05:36:50;;;;;;;21.30;3.47;;;5.20;99.90;;;;;;5032386;28;20037;-55
2022/01/28 05:39:15;;;;;;;25.25;3.97;;;5.30;99.90;;;;;;5031596;28;20041;-53
2022/01/28 05:41:41;;;;;;;23.52;3.85;;;5.30;99.90;;;;;;5032037;28;20053;-52
2022/01/28 05:44:07;;;;;;;19.50;3.25;;;5.30;99.90;;;;;;5031624;28;20445;-54
2022/01/28 05:46:33;;;;;;;21.58;3.85;;;5.30;99.90;;;;;;5031556;28;20405;-52
2022/01/28 05:48:58;;;;;;;23.95;3.75;;;5.30;99.90;;;;;;5046424;28;20048;-53
2022/01/28 05:51:24;;;;;;;16.75;3.42;;;5.30;99.90;;;;;;5051598;28;20041;-51
2022/01/28 05:53:50;;;;;;;27.38;4.05;;;5.30;99.90;;;;;;5051411;28;20033;-53
2022/01/28 05:56:16;;;;;;;22.20;3.60;;;5.30;99.90;;;;;;5051546;28;20500;-51
2022/01/28 05:58:41;;;;;;;21.83;3.63;;;5.30;99.90;;;;;;5051476;28;20394;-53
2022/01/28 06:01:07;;;;;;;24.40;4.25;;;5.30;99.90;;;;;;5039902;28;20046;-53
2022/01/28 06:03:32;;;;;;;20.35;3.88;;;5.30;99.90;;;;;;5024848;28;20127;-53
2022/01/28 06:05:58;;;;;;;21.10;3.05;;;5.30;99.90;;;;;;5031439;28;20047;-53
2022/01/28 06:08:24;;;;;;;25.02;3.45;;;5.30;99.90;;;;;;5028512;28;20492;-52
2022/01/28 06:10:49;;;;;;;22.85;3.67;;;5.20;99.90;;;;;;5023506;28;20033;-52
2022/01/28 06:13:15;;;;;;;27.25;3.75;;;5.20;99.90;;;;;;5025291;28;20045;-51
2022/01/28 06:15:42;;;;;;;29.70;4.55;;;5.10;99.90;;;;;;5030962;28;20034;-52
2022/01/28 06:18:09;;;;;;;24.38;4.28;;;5.10;99.90;;;;;;5030796;28;20112;-52
2022/01/28 06:20:34;;;;;;;30.92;4.30;;;5.00;99.90;;;;;;5031442;28;20129;-52
2022/01/28 06:23:00;;;;;;;28.08;3.55;;;5.00;99.90;;;;;;5031736;28;20121;-53
2022/01/28 06:25:25;;;;;;;25.95;4.82;;;4.90;99.90;;;;;;5035510;28;20543;-50
2022/01/28 06:27:51;;;;;;;25.00;3.55;;;4.90;99.90;;;;;;5035395;28;20044;-51
2022/01/28 06:30:17;;;;;;;20.98;3.90;;;4.90;99.90;;;;;;5034721;28;20046;-52
2022/01/28 06:32:43;;;;;;;25.30;4.07;;;4.90;99.90;;;;;;5035060;28;20409;-54
2022/01/28 06:35:09;;;;;;;25.23;3.58;;;4.80;99.90;;;;;;5033245;28;20040;-53
2022/01/28 06:37:40;;;;;;;27.30;3.90;;;4.80;99.90;;;;;;5033613;28;20045;-55
2022/01/28 06:40:14;;;;;;;26.30;4.57;;;4.80;99.90;;;;;;5036656;28;20456;-50
2022/01/28 06:42:40;;;;;;;31.17;3.70;;;4.70;99.90;;;;;;5019645;28;20063;-52
2022/01/28 06:45:06;;;;;;;29.88;4.10;;;4.70;99.90;;;;;;5038023;28;20037;-52
2022/01/28 06:47:33;;;;;;;23.55;3.63;;;4.70;99.90;;;;;;5035825;28;20044;-53
2022/01/28 06:49:59;;;;;;;27.98;4.10;;;5.10;99.90;;;;;;5033739;28;20107;-52
2022/01/28 06:52:24;;;;;;;26.63;4.55;;;4.60;99.90;;;;;;5036524;28;20119;-53
2022/01/28 06:54:50;;;;;;;21.00;3.88;;;4.60;99.90;;;;;;5034860;28;20061;-52
2022/01/28 06:57:15;;;;;;;23.38;4.00;;;4.60;99.90;;;;;;5034852;28;20037;-52
2022/01/28 06:59:41;;;;;;;24.38;3.78;;;4.50;99.90;;;;;;5034873;28;20452;-54
2022/01/28 07:02:07;;;;;;;29.10;4.28;;;4.50;99.90;;;;;;5029018;28;20084;-52
2022/01/28 07:04:33;;;;;;;29.42;4.28;;;4.50;99.90;;;;;;5015776;28;20034;-50
2022/01/28 07:06:59;;;;;;;18.70;3.58;;;4.50;99.90;;;;;;5033125;28;20107;-50
2022/01/28 07:09:25;;;;;;;22.20;4.43;;;4.50;99.90;;;;;;5026669;28;20687;-50
2022/01/28 07:11:51;;;;;;;22.45;3.90;;;4.50;99.90;;;;;;5028643;28;20068;-52
2022/01/28 07:14:17;;;;;;;22.23;3.83;;;4.50;99.90;;;;;;5034325;28;20095;-50
2022/01/28 07:16:43;;;;;;;20.88;3.72;;;4.50;99.90;;;;;;5034472;28;20509;-49
2022/01/28 07:19:09;;;;;;;21.95;3.67;;;4.40;99.90;;;;;;5029254;28;20034;-51
2022/01/28 07:21:35;;;;;;;21.63;3.50;;;4.40;99.90;;;;;;5029267;28;20045;-49
2022/01/28 07:24:01;;;;;;;28.67;3.85;;;4.30;99.90;;;;;;5024719;28;20045;-49
2022/01/28 07:26:26;;;;;;;21.13;3.65;;;4.20;99.90;;;;;;5032607;28;20549;-51
2022/01/28 07:28:53;;;;;;;31.02;5.00;;;4.10;99.90;;;;;;5029582;28;20042;-52
2022/01/28 07:31:19;;;;;;;21.00;3.38;;;4.00;99.90;;;;;;5014585;28;20561;-51
2022/01/28 07:33:45;;;;;;;16.92;3.22;;;4.00;99.90;;;;;;5028113;28;20048;-50
2022/01/28 07:36:10;;;;;;;22.98;3.90;;;3.90;99.90;;;;;;5015159;28;20506;-52
2022/01/28 07:38:36;;;;;;;21.77;3.58;;;3.70;99.90;;;;;;5032742;28;20060;-54
2022/01/28 07:41:02;;;;;;;21.00;3.38;;;3.60;99.90;;;;;;5028158;28;20048;-53
2022/01/28 07:43:28;;;;;;;30.92;4.07;;;3.50;99.90;;;;;;5030656;28;20179;-52
2022/01/28 07:45:54;;;;;;;24.20;3.85;;;3.40;99.90;;;;;;5020641;28;20083;-52
2022/01/28 07:48:19;;;;;;;29.08;4.65;;;3.40;99.90;;;;;;5016690;28;20042;-52
2022/01/28 07:50:45;;;;;;;22.88;4.25;;;3.40;99.90;;;;;;5022082;28;20037;-52
2022/01/28 07:53:16;;;;;;;22.60;4.10;;;3.40;99.90;;;;;;5027691;28;20076;-54
2022/01/28 07:55:43;;;;;;;21.93;4.10;;;3.40;99.90;;;;;;5024526;28;20041;-52
2022/01/28 07:58:09;;;;;;;30.60;4.25;;;3.40;99.90;;;;;;5015257;28;20747;-54
2022/01/28 08:00:34;;;;;;;24.52;4.00;;;3.40;99.90;;;;;;5019939;28;20040;-54
2022/01/28 08:03:00;;;;;;;22.85;4.40;;;3.40;99.90;;;;;;5029036;28;20117;-53
2022/01/28 08:05:26;;;;;;;23.23;4.30;;;3.40;99.90;;;;;;5025727;28;20041;-54
2022/01/28 08:07:52;;;;;;;34.00;5.25;;;3.50;99.90;;;;;;5025230;28;20509;-54
2022/01/28 08:10:19;;;;;;;21.42;3.90;;;3.50;99.90;;;;;;5023887;28;20146;-54
2022/01/28 08:12:50;;;;;;;23.58;4.43;;;3.60;99.90;;;;;;5029789;28;20038;-54
2022/01/28 08:15:16;;;;;;;23.60;4.22;;;3.70;99.90;;;;;;5027823;28;20030;-54
2022/01/28 08:17:42;;;;;;;28.33;4.63;;;3.70;99.90;;;;;;5020497;28;20567;-53
2022/01/28 08:20:08;;;;;;;22.02;4.30;;;3.80;99.90;;;;;;5024491;28;20041;-53
2022/01/28 08:22:47;;;;;;;36.75;4.35;;;3.80;99.90;;;;;;5024700;28;20394;-52
2022/01/28 08:25:14;;;;;;;27.48;3.58;;;3.80;99.90;;;;;;5027026;28;20445;-52
2022/01/28 08:27:42;;;;;;;22.52;4.35;;;3.80;99.90;;;;;;5020241;28;20510;-54
2022/01/28 08:30:09;;;;;;;29.27;4.53;;;3.80;99.90;;;;;;5025417;28;20037;-54
2022/01/28 08:32:35;;;;;;;19.50;3.85;;;3.80;99.90;;;;;;5001895;28;20060;-54
2022/01/28 08:35:00;;;;;;;26.38;4.30;;;3.80;99.90;;;;;;5021010;28;20109;-54
2022/01/28 08:37:26;;;;;;;27.90;4.70;;;3.80;99.90;;;;;;5021370;28;20038;-52
2022/01/28 08:39:53;;;;;;;19.15;4.10;;;3.70;99.90;;;;;;5024242;28;20039;-54
2022/01/28 08:42:18;;;;;;;22.67;4.18;;;3.70;99.90;;;;;;5041600;22;20041;-51
2022/01/28 08:44:44;;;;;;;25.05;4.55;;;3.80;99.90;;;;;;5035316;28;20044;-51
2022/01/28 08:47:09;;;;;;;30.33;4.15;;;3.80;99.90;;;;;;5034375;28;20499;-51
2022/01/28 08:49:35;;;;;;;20.55;4.00;;;3.90;99.90;;;;;;5042669;28;20037;-50
2022/01/28 08:52:00;;;;;;;24.60;4.78;;;4.00;99.90;;;;;;5042182;28;20034;-52
2022/01/28 08:54:26;;;;;;;28.35;3.85;;;4.10;99.90;;;;;;5045263;28;20606;-53
2022/01/28 08:56:52;;;;;;;23.95;4.63;;;4.10;99.90;;;;;;5038107;28;20417;-50
2022/01/28 08:59:17;;;;;;;24.05;4.05;;;4.20;99.90;;;;;;5037740;28;20547;-53
2022/01/28 09:01:43;;;;;;;24.20;3.90;;;4.20;99.90;;;;;;5041363;28;20041;-52
2022/01/28 09:04:08;;;;;;;24.60;4.63;;;4.30;99.90;;;;;;5040068;28;20155;-51
2022/01/28 09:06:34;;;;;;;27.25;4.28;;;4.30;99.90;;;;;;5041084;28;20492;-50
2022/01/28 09:09:01;;;;;;;26.23;3.92;;;4.40;99.90;;;;;;5042070;28;20396;-50
2022/01/28 09:13:53;;;;;;;25.60;4.30;;;4.60;99.90;;;;;;5046181;28;20033;-49
2022/01/28 09:16:21;;;;;;;27.45;4.10;;;4.60;99.90;;;;;;5052004;28;20407;-49
2022/01/28 09:18:47;;;;;;;21.42;3.92;;;4.70;99.90;;;;;;5050984;28;20049;-50
2022/01/28 09:21:13;;;;;;;32.55;4.30;;;4.80;99.90;;;;;;5051870;28;20431;-49
2022/01/28 09:23:38;;;;;;;20.75;4.18;;;4.80;99.90;;;;;;5051490;28;20047;-52
2022/01/28 09:26:04;;;;;;;24.17;4.82;;;4.90;99.90;;;;;;5049686;28;20052;-52
2022/01/28 09:28:29;;;;;;;31.83;4.95;;;4.90;99.90;;;;;;5044308;28;20453;-51
2022/01/28 09:30:57;;;;;;;21.08;4.10;;;4.90;99.90;;;;;;5039381;28;20141;-49
2022/01/28 09:33:23;;;;;;;28.35;5.22;;;5.00;99.90;;;;;;5041344;28;20041;-48
2022/01/28 09:35:48;;;;;;;26.15;5.57;;;5.00;99.90;;;;;;5051627;28;20027;-49
2022/01/28 09:38:14;;;;;;;29.30;5.93;;;5.10;99.90;;;;;;5051158;28;20037;-50
2022/01/28 09:40:40;;;;;;;27.85;4.55;;;5.10;99.90;;;;;;5051459;28;20514;-51
2022/01/28 09:43:08;;;;;;;20.08;4.20;;;5.10;99.90;;;;;;5051272;28;20404;-51
2022/01/28 09:45:34;;;;;;;31.13;4.70;;;5.20;99.90;;;;;;5051703;28;20044;-48
2022/01/28 09:48:00;;;;;;;45.45;6.53;;;5.30;99.90;;;;;;5051678;28;20040;-51
2022/01/28 09:50:29;;;;;;;30.08;4.15;;;5.30;99.90;;;;;;5051342;28;20072;-50
2022/01/28 09:52:56;;;;;;;22.00;4.70;;;5.40;99.90;;;;;;5050923;28;20431;-48
2022/01/28 09:55:23;;;;;;;35.70;4.97;;;5.40;99.90;;;;;;5051039;28;20033;-51
2022/01/28 09:57:53;;;;;;;33.72;5.03;;;5.40;99.90;;;;;;5050830;28;20041;-50
2022/01/28 10:00:22;;;;;;;27.88;5.07;;;5.50;99.90;;;;;;5051568;28;20075;-48
2022/01/28 10:03:01;;;;;;;23.30;4.72;;;5.50;99.90;;;;;;5051375;28;20041;-48
2022/01/28 10:05:38;;;;;;;24.90;4.75;;;5.50;99.90;;;;;;5049629;28;20102;-51
2022/01/28 10:08:16;;;;;;;25.33;5.00;;;5.50;99.90;;;;;;5031353;28;20088;-48
2022/01/28 10:10:54;;;;;;;24.85;4.20;;;5.50;99.90;;;;;;5032675;28;20700;-49
2022/01/28 10:13:42;;;;;;;27.77;5.22;;;5.60;99.90;;;;;;5051368;28;20524;-48
2022/01/28 10:16:16;;;;;;;23.50;4.22;;;5.70;99.90;;;;;;5050992;28;20493;-48
2022/01/28 10:18:48;;;;;;;29.83;4.90;;;5.70;99.90;;;;;;5051131;28;20033;-49
2022/01/28 10:21:29;;;;;;;22.25;4.60;;;5.70;99.90;;;;;;5051252;28;20075;-49
2022/01/28 10:23:56;;;;;;;36.70;5.38;;;5.70;99.90;;;;;;5049893;28;20071;-49
2022/01/28 10:26:44;;;;;;;23.35;5.03;;;5.70;99.90;;;;;;5048879;28;20037;-49
2022/01/28 10:29:14;;;;;;;30.35;5.35;;;5.70;99.90;;;;;;5049955;28;20061;-49
2022/01/28 10:31:45;;;;;;;29.15;5.45;;;5.70;99.90;;;;;;5051061;28;20068;-50
2022/01/28 10:34:11;;;;;;;29.17;7.35;;;5.80;99.90;;;;;;5050414;28;20048;-48
2022/01/28 10:36:37;;;;;;;23.65;4.40;;;5.80;99.90;;;;;;5047395;28;20038;-48
2022/01/28 10:39:03;;;;;;;29.13;5.43;;;5.80;99.90;;;;;;5045243;28;20041;-48
2022/01/28 10:41:28;;;;;;;30.48;4.47;;;5.90;99.90;;;;;;5049857;28;20110;-48
2022/01/28 10:43:57;;;;;;;34.22;5.18;;;5.90;99.90;;;;;;5050834;28;20049;-49
2022/01/28 10:46:29;;;;;;;25.52;4.95;;;5.90;99.90;;;;;;5049771;28;20159;-49
2022/01/28 10:49:01;;;;;;;25.08;5.45;;;6.00;99.90;;;;;;5049703;28;20076;-49
2022/01/28 10:51:49;;;;;;;26.27;4.57;;;6.00;99.90;;;;;;5044143;28;20492;-49
2022/01/28 10:54:23;;;;;;;29.25;5.25;;;6.00;99.90;;;;;;5042857;28;20037;-50
2022/01/28 10:57:00;;;;;;;25.17;5.13;;;6.00;99.90;;;;;;5049887;28;20412;-48
2022/01/28 10:59:38;;;;;;;32.05;5.63;;;6.10;99.90;;;;;;5030560;28;20538;-52
2022/01/28 11:02:05;;;;;;;19.23;4.70;;;6.10;99.90;;;;;;5046550;28;20504;-49
2022/01/28 11:04:33;;;;;;;26.83;4.57;;;6.10;99.90;;;;;;5048685;28;20065;-49
2022/01/28 11:07:00;;;;;;;23.75;4.70;;;6.20;99.90;;;;;;5049731;28;20095;-49
2022/01/28 11:09:26;;;;;;;29.80;5.70;;;6.20;99.90;;;;;;5049975;28;20037;-49
2022/01/28 11:11:53;;;;;;;33.22;4.90;;;6.30;99.90;;;;;;5049470;28;20029;-51
2022/01/28 11:14:19;;;;;;;22.30;5.00;;;6.30;99.90;;;;;;5045928;28;20041;-50
2022/01/28 11:16:46;;;;;;;30.70;5.30;;;6.40;99.90;;;;;;5054152;28;20033;-53
2022/01/28 11:19:15;;;;;;;28.67;4.50;;;6.40;99.90;;;;;;5054359;28;20033;-50
2022/01/28 11:22:08;;;;;;;28.48;4.35;;;6.50;99.90;;;;;;5054379;28;20416;-53
2022/01/28 11:25:07;;;;;;;25.33;3.92;;;6.50;99.90;;;;;;5043137;28;20513;-55
2022/01/28 11:27:35;;;;;;;28.40;4.55;;;6.50;99.90;;;;;;5045166;28;20244;-53
2022/01/28 11:30:22;;;;;;;20.48;4.00;;;6.60;99.90;;;;;;5042920;28;20513;-53
2022/01/28 11:33:07;;;;;;;27.17;4.45;;;6.60;99.90;;;;;;5048850;28;20024;-53
2022/01/28 11:35:39;;;;;;;23.77;4.65;;;6.60;99.90;;;;;;5046108;28;20045;-52
2022/01/28 11:38:30;;;;;;;19.75;4.15;;;6.60;99.90;;;;;;5039707;28;20363;-52
2022/01/28 11:41:24;;;;;;;19.05;3.60;;;6.70;99.90;;;;;;5041817;28;20067;-53
2022/01/28 11:43:55;;;;;;;19.23;3.60;;;6.80;99.90;;;;;;5042424;28;20049;-53
2022/01/28 11:46:37;;;;;;;19.88;4.25;;;6.80;99.90;;;;;;5048078;28;20037;-51
2022/01/28 11:49:04;;;;;;;17.30;3.30;;;6.90;99.90;;;;;;5043963;28;20512;-53
2022/01/28 11:51:41;;;;;;;22.27;4.05;;;6.90;99.90;;;;;;5049569;28;20068;-51
2022/01/28 11:54:10;;;;;;;25.30;3.60;;;7.00;99.90;;;;;;5049445;28;20106;-51
2022/01/28 11:56:57;;;;;;;20.15;4.55;;;6.90;99.90;;;;;;5043015;28;20032;-54
2022/01/28 11:59:27;;;;;;;20.90;3.95;;;6.90;99.90;;;;;;5041100;28;20033;-53
2022/01/28 12:01:53;;;;;;;18.48;3.78;;;6.80;99.90;;;;;;5041603;28;20414;-53
2022/01/28 12:04:29;;;;;;;20.55;4.57;;;6.80;99.90;;;;;;5042928;28;20029;-54
2022/01/28 12:07:03;;;;;;;20.92;3.70;;;6.80;99.90;;;;;;5045034;28;20036;-55
2022/01/28 12:09:31;;;;;;;24.83;4.75;;;6.80;99.90;;;;;;5042926;28;20093;-54
2022/01/28 12:11:58;;;;;;;22.70;4.38;;;6.80;99.90;;;;;;5049195;28;20154;-52
2022/01/28 12:14:54;;;;;;;23.90;4.22;;;6.70;99.90;;;;;;5047517;28;20033;-54
2022/01/28 12:17:33;;;;;;;29.63;4.30;;;6.60;99.90;;;;;;5039420;28;20061;-51
2022/01/28 12:20:12;;;;;;;27.65;5.45;;;6.70;99.90;;;;;;5046845;28;20082;-53
2022/01/28 12:23:09;;;;;;;22.50;6.03;;;6.70;99.90;;;;;;5052421;28;20046;-51
2022/01/28 12:25:40;;;;;;;28.08;5.03;;;6.70;99.90;;;;;;5043798;28;20540;-53
2022/01/28 12:28:30;;;;;;;26.27;3.92;;;6.80;99.90;;;;;;5047376;28;20067;-50
2022/01/28 12:31:09;;;;;;;22.58;4.93;;;6.80;99.90;;;;;;5044478;28;20037;-51
2022/01/28 12:33:38;;;;;;;35.45;5.57;;;6.80;99.90;;;;;;5052162;28;20037;-52
2022/01/28 12:36:12;;;;;;;28.35;5.55;;;6.90;99.90;;;;;;5052293;28;20048;-50
2022/01/28 12:38:43;;;;;;;23.10;4.65;;;6.90;99.90;;;;;;5044808;28;20090;-50
2022/01/28 12:41:12;;;;;;;26.17;5.47;;;7.00;99.90;;;;;;5040162;28;20055;-51
2022/01/28 12:43:38;;;;;;;24.90;5.22;;;7.00;99.90;;;;;;5051999;28;20048;-52
2022/01/28 12:46:09;;;;;;;21.33;4.55;;;7.00;99.90;;;;;;5042191;28;20103;-50
2022/01/28 12:48:44;;;;;;;26.35;5.72;;;7.00;99.90;;;;;;5045493;28;20398;-52
2022/01/28 12:51:09;;;;;;;21.70;3.78;;;7.10;99.90;;;;;;5045712;28;20443;-50
2022/01/28 12:53:40;;;;;;;27.45;4.43;;;7.10;99.90;;;;;;5050539;28;20033;-49
2022/01/28 12:56:08;;;;;;;18.02;3.33;;;7.20;99.90;;;;;;5050801;28;20043;-49
2022/01/28 12:58:50;;;;;;;20.45;3.75;;;7.20;99.80;;;;;;5052629;28;20127;-51
2022/01/28 13:01:18;;;;;;;;;;;7.20;99.80;;;;;;5052532;28;20095;-51
2022/01/28 13:03:52;;;;;;;27.25;4.38;;;7.20;99.90;;;;;;5052657;28;20003;-52
2022/01/28 13:08:53;;;;;;;24.92;4.15;;;7.30;99.90;;;;;;5048618;28;20079;-53
2022/01/28 13:11:19;;;;;;;28.17;3.92;;;7.30;99.90;;;;;;5040358;28;20041;-55
2022/01/28 13:13:50;;;;;;;25.75;5.28;;;7.40;99.90;;;;;;5048249;28;20127;-53
2022/01/28 13:16:15;;;;;;;20.65;4.32;;;7.40;99.90;;;;;;5048473;28;20082;-49
2022/01/28 13:18:54;;;;;;;25.05;5.22;;;7.40;99.90;;;;;;5048343;28;20037;-49
2022/01/28 13:21:20;;;;;;;23.38;4.30;;;7.30;99.90;;;;;;5046731;28;20037;-50
2022/01/28 13:23:46;;;;;;;22.10;4.45;;;7.40;99.90;;;;;;5048139;28;20504;-50
2022/01/28 13:26:12;;;;;;;19.73;3.65;;;7.30;99.90;;;;;;5031870;28;20672;-50
2022/01/28 13:28:40;;;;;;;20.48;3.83;;;7.50;99.90;;;;;;5043454;28;20037;-53
2022/01/28 13:31:06;;;;;;;35.58;3.92;;;7.60;99.90;;;;;;5032534;28;20041;-50
2022/01/28 13:33:31;;;;;;;24.88;3.78;;;7.30;99.90;;;;;;5037562;28;20029;-50
2022/01/28 13:35:59;;;;;;;27.88;3.65;;;7.30;99.90;;;;;;5047280;28;20519;-51
2022/01/28 13:38:34;;;;;;;22.13;4.22;;;7.30;99.90;;;;;;5047519;28;20037;-54
2022/01/28 13:41:17;;;;;;;25.80;4.05;;;7.30;99.90;;;;;;5047978;28;20119;-53
2022/01/28 13:43:42;;;;;;;;;;;7.30;99.80;;;;;;5047898;28;20041;-49
2022/01/28 13:46:13;;;;;;;15.65;2.90;;;7.40;99.70;;;;;;5047872;28;20430;-50
2022/01/28 13:48:39;;;;;;;22.40;2.75;;;7.30;99.90;;;;;;5047880;28;20102;-53
2022/01/28 13:51:17;;;;;;;21.98;3.25;;;7.30;99.90;;;;;;5048212;28;20041;-53
2022/01/28 13:56:42;;;;;;;19.27;2.90;;;7.40;99.90;;;;;;5047347;28;20497;-49
2022/01/28 13:59:15;;;;;;;20.75;3.88;;;7.40;99.90;;;;;;5046330;28;20052;-49
2022/01/28 14:01:46;;;;;;;21.20;3.25;;;7.30;99.60;;;;;;5044762;28;20041;-52
2022/01/28 14:04:23;;;;;;;24.23;3.42;;;7.30;99.70;;;;;;5042876;28;20124;-52
2022/01/28 14:07:07;;;;;;;18.98;2.97;;;7.30;99.80;;;;;;5040665;28;20049;-49
2022/01/28 14:09:53;;;;;;;18.92;3.22;;;7.30;99.50;;;;;;5045421;28;20045;-52
2022/01/28 14:12:40;;;;;;;22.35;3.42;;;7.20;99.10;;;;;;5042255;28;20041;-50
2022/01/28 14:15:15;;;;;;;23.02;4.15;;;7.10;99.20;;;;;;5044633;28;20122;-52
2022/01/28 14:17:41;;;;;;;15.05;2.80;;;7.10;99.30;;;;;;5045625;28;20352;-49
2022/01/28 14:20:07;;;;;;;24.08;3.75;;;7.10;99.30;;;;;;5043607;28;20044;-51